sensor_id;sensor_type;location;lat;lon;timestamp;temperature;humidity
12446;DHT22;6287;50.984;7.022;2022-07-29T00:00:26;19.00;98.90
12446;DHT22;6287;50.984;7.022;2022-07-29T00:02:52;18.90;98.60
12446;DHT22;6287;50.984;7.022;2022-07-29T00:05:17;18.90;98.90
12446;DHT22;6287;50.984;7.022;2022-07-29T00:07:43;18.90;99.00
12446;DHT22;6287;50.984;7.022;2022-07-29T00:10:09;18.90;99.20
12446;DHT22;6287;50.984;7.022;2022-07-29T00:12:35;18.80;99.50
12446;DHT22;6287;50.984;7.022;2022-07-29T00:15:01;18.80;99.30
12446;DHT22;6287;50.984;7.022;2022-07-29T00:17:29;18.70;99.90
12446;DHT22;6287;50.984;7.022;2022-07-29T00:19:59;18.70;99.90
12446;DHT22;6287;50.984;7.022;2022-07-29T00:22:24;18.70;99.90
12446;DHT22;6287;50.984;7.022;2022-07-29T00:24:50;18.70;99.90
12446;DHT22;6287;50.984;7.022;2022-07-29T00:27:18;18.70;99.90
12446;DHT22;6287;50.984;7.022;2022-07-29T00:29:44;18.70;99.90
12446;DHT22;6287;50.984;7.022;2022-07-29T00:32:12;18.70;99.90
12446;DHT22;6287;50.984;7.022;2022-07-29T00:34:42;18.70;99.90
12446;DHT22;6287;50.984;7.022;2022-07-29T00:37:27;18.70;99.90
12446;DHT22;6287;50.984;7.022;2022-07-29T00:39:52;18.70;99.90
12446;DHT22;6287;50.984;7.022;2022-07-29T00:42:20;18.70;99.90
12446;DHT22;6287;50.984;7.022;2022-07-29T00:44:46;18.70;99.90
12446;DHT22;6287;50.984;7.022;2022-07-29T00:47:19;18.70;99.90
12446;DHT22;6287;50.984;7.022;2022-07-29T00:49:45;18.70;99.90
12446;DHT22;6287;50.984;7.022;2022-07-29T00:52:13;18.60;99.90
12446;DHT22;6287;50.984;7.022;2022-07-29T00:54:39;18.60;99.90
12446;DHT22;6287;50.984;7.022;2022-07-29T00:57:10;18.60;99.90
12446;DHT22;6287;50.984;7.022;2022-07-29T00:59:39;18.60;99.90
12446;DHT22;6287;50.984;7.022;2022-07-29T01:02:04;18.60;99.90
12446;DHT22;6287;50.984;7.022;2022-07-29T01:04:33;18.60;99.90
12446;DHT22;6287;50.984;7.022;2022-07-29T01:07:04;18.60;99.90
12446;DHT22;6287;50.984;7.022;2022-07-29T01:09:32;18.60;99.90
12446;DHT22;6287;50.984;7.022;2022-07-29T01:12:01;18.60;99.90
12446;DHT22;6287;50.984;7.022;2022-07-29T01:14:28;18.60;99.90
12446;DHT22;6287;50.984;7.022;2022-07-29T01:17:27;18.60;99.90
12446;DHT22;6287;50.984;7.022;2022-07-29T01:23:01;18.50;99.90
12446;DHT22;6287;50.984;7.022;2022-07-29T01:31:25;18.50;99.90
12446;DHT22;6287;50.984;7.022;2022-07-29T01:33:58;18.50;99.90
12446;DHT22;6287;50.984;7.022;2022-07-29T01:39:31;18.50;99.90
12446;DHT22;6287;50.984;7.022;2022-07-29T01:44:41;18.50;99.90
12446;DHT22;6287;50.984;7.022;2022-07-29T01:47:17;18.40;99.90
12446;DHT22;6287;50.984;7.022;2022-07-29T01:49:51;18.40;99.90
12446;DHT22;6287;50.984;7.022;2022-07-29T01:52:26;18.40;99.90
12446;DHT22;6287;50.984;7.022;2022-07-29T01:54:58;18.30;99.90
12446;DHT22;6287;50.984;7.022;2022-07-29T01:57:31;18.30;99.90
12446;DHT22;6287;50.984;7.022;2022-07-29T02:00:02;18.30;99.90
12446;DHT22;6287;50.984;7.022;2022-07-29T02:02:30;18.30;99.90
12446;DHT22;6287;50.984;7.022;2022-07-29T02:05:00;18.30;99.90
12446;DHT22;6287;50.984;7.022;2022-07-29T02:07:33;18.30;99.90
12446;DHT22;6287;50.984;7.022;2022-07-29T02:10:00;18.20;99.90
12446;DHT22;6287;50.984;7.022;2022-07-29T02:12:28;18.20;99.90
12446;DHT22;6287;50.984;7.022;2022-07-29T02:14:59;18.10;99.90
12446;DHT22;6287;50.984;7.022;2022-07-29T02:17:33;18.10;99.90
12446;DHT22;6287;50.984;7.022;2022-07-29T02:20:03;18.10;99.90
12446;DHT22;6287;50.984;7.022;2022-07-29T02:22:31;18.10;99.90
12446;DHT22;6287;50.984;7.022;2022-07-29T02:24:59;18.00;99.90
12446;DHT22;6287;50.984;7.022;2022-07-29T02:27:28;18.00;99.90
12446;DHT22;6287;50.984;7.022;2022-07-29T02:30:02;18.00;99.90
12446;DHT22;6287;50.984;7.022;2022-07-29T02:32:29;18.00;99.90
12446;DHT22;6287;50.984;7.022;2022-07-29T02:34:59;17.90;99.90
12446;DHT22;6287;50.984;7.022;2022-07-29T02:37:27;17.80;99.90
12446;DHT22;6287;50.984;7.022;2022-07-29T02:39:59;17.80;99.90
12446;DHT22;6287;50.984;7.022;2022-07-29T02:42:27;17.70;99.90
12446;DHT22;6287;50.984;7.022;2022-07-29T02:44:53;17.70;99.90
12446;DHT22;6287;50.984;7.022;2022-07-29T02:47:36;17.70;99.90
12446;DHT22;6287;50.984;7.022;2022-07-29T02:50:12;17.70;99.90
12446;DHT22;6287;50.984;7.022;2022-07-29T02:52:56;17.60;99.90
12446;DHT22;6287;50.984;7.022;2022-07-29T02:55:34;17.60;99.90
12446;DHT22;6287;50.984;7.022;2022-07-29T03:00:54;17.50;99.90
12446;DHT22;6287;50.984;7.022;2022-07-29T03:03:23;17.40;99.90
12446;DHT22;6287;50.984;7.022;2022-07-29T03:05:55;17.40;99.90
12446;DHT22;6287;50.984;7.022;2022-07-29T03:08:23;17.40;99.90
12446;DHT22;6287;50.984;7.022;2022-07-29T03:10:55;17.30;99.90
12446;DHT22;6287;50.984;7.022;2022-07-29T03:13:24;17.30;99.90
12446;DHT22;6287;50.984;7.022;2022-07-29T03:15:52;17.20;99.90
12446;DHT22;6287;50.984;7.022;2022-07-29T03:18:23;17.20;99.90
12446;DHT22;6287;50.984;7.022;2022-07-29T03:20:49;17.10;99.90
12446;DHT22;6287;50.984;7.022;2022-07-29T03:23:24;17.10;99.90
12446;DHT22;6287;50.984;7.022;2022-07-29T03:25:53;17.10;99.90
12446;DHT22;6287;50.984;7.022;2022-07-29T03:28:19;17.00;99.90
12446;DHT22;6287;50.984;7.022;2022-07-29T03:30:45;17.10;99.90
12446;DHT22;6287;50.984;7.022;2022-07-29T03:33:13;17.10;99.90
12446;DHT22;6287;50.984;7.022;2022-07-29T03:35:41;17.10;99.90
12446;DHT22;6287;50.984;7.022;2022-07-29T03:38:09;17.00;99.90
12446;DHT22;6287;50.984;7.022;2022-07-29T03:40:46;17.10;99.90
12446;DHT22;6287;50.984;7.022;2022-07-29T03:43:15;17.10;99.90
12446;DHT22;6287;50.984;7.022;2022-07-29T03:45:49;17.20;99.90
12446;DHT22;6287;50.984;7.022;2022-07-29T03:48:20;17.20;99.90
12446;DHT22;6287;50.984;7.022;2022-07-29T03:50:47;17.20;99.90
12446;DHT22;6287;50.984;7.022;2022-07-29T03:53:13;17.20;99.90
12446;DHT22;6287;50.984;7.022;2022-07-29T03:55:48;17.30;99.90
12446;DHT22;6287;50.984;7.022;2022-07-29T03:58:18;17.30;99.90
12446;DHT22;6287;50.984;7.022;2022-07-29T04:00:45;17.40;99.90
12446;DHT22;6287;50.984;7.022;2022-07-29T04:03:12;17.40;99.90
12446;DHT22;6287;50.984;7.022;2022-07-29T04:05:41;17.40;99.90
12446;DHT22;6287;50.984;7.022;2022-07-29T04:08:06;17.50;99.90
12446;DHT22;6287;50.984;7.022;2022-07-29T04:10:34;17.40;99.90
12446;DHT22;6287;50.984;7.022;2022-07-29T04:13:00;17.50;99.90
12446;DHT22;6287;50.984;7.022;2022-07-29T04:15:26;17.50;99.90
12446;DHT22;6287;50.984;7.022;2022-07-29T04:17:56;17.60;99.90
12446;DHT22;6287;50.984;7.022;2022-07-29T04:20:26;17.60;99.90
12446;DHT22;6287;50.984;7.022;2022-07-29T04:22:56;17.60;99.90
12446;DHT22;6287;50.984;7.022;2022-07-29T04:25:24;17.70;99.90
12446;DHT22;6287;50.984;7.022;2022-07-29T04:27:50;17.70;99.90
12446;DHT22;6287;50.984;7.022;2022-07-29T04:30:25;17.80;99.90
12446;DHT22;6287;50.984;7.022;2022-07-29T04:32:51;17.80;99.90
12446;DHT22;6287;50.984;7.022;2022-07-29T04:35:19;17.80;99.90
12446;DHT22;6287;50.984;7.022;2022-07-29T04:37:50;17.90;99.90
12446;DHT22;6287;50.984;7.022;2022-07-29T04:40:15;17.90;99.90
12446;DHT22;6287;50.984;7.022;2022-07-29T04:42:43;18.00;99.90
12446;DHT22;6287;50.984;7.022;2022-07-29T04:45:09;18.00;99.90
12446;DHT22;6287;50.984;7.022;2022-07-29T04:47:35;18.00;99.90
12446;DHT22;6287;50.984;7.022;2022-07-29T04:50:03;18.10;99.90
12446;DHT22;6287;50.984;7.022;2022-07-29T04:52:30;18.10;99.90
12446;DHT22;6287;50.984;7.022;2022-07-29T04:54:56;18.10;99.90
12446;DHT22;6287;50.984;7.022;2022-07-29T04:57:22;18.20;99.90
12446;DHT22;6287;50.984;7.022;2022-07-29T04:59:51;18.20;99.90
12446;DHT22;6287;50.984;7.022;2022-07-29T05:02:16;18.30;99.90
12446;DHT22;6287;50.984;7.022;2022-07-29T05:04:44;18.20;99.90
12446;DHT22;6287;50.984;7.022;2022-07-29T05:07:10;18.30;99.90
12446;DHT22;6287;50.984;7.022;2022-07-29T05:09:38;18.40;99.90
12446;DHT22;6287;50.984;7.022;2022-07-29T05:12:04;18.40;99.90
12446;DHT22;6287;50.984;7.022;2022-07-29T05:14:30;18.50;99.90
12446;DHT22;6287;50.984;7.022;2022-07-29T05:16:56;18.50;99.90
12446;DHT22;6287;50.984;7.022;2022-07-29T05:19:22;18.50;99.90
12446;DHT22;6287;50.984;7.022;2022-07-29T05:24:19;18.60;99.90
12446;DHT22;6287;50.984;7.022;2022-07-29T05:26:45;18.70;99.90
12446;DHT22;6287;50.984;7.022;2022-07-29T05:29:12;18.80;99.90
12446;DHT22;6287;50.984;7.022;2022-07-29T05:31:40;18.80;99.90
12446;DHT22;6287;50.984;7.022;2022-07-29T05:34:06;18.90;99.90
12446;DHT22;6287;50.984;7.022;2022-07-29T05:36:31;19.00;99.90
12446;DHT22;6287;50.984;7.022;2022-07-29T05:38:59;19.10;99.90
12446;DHT22;6287;50.984;7.022;2022-07-29T05:41:25;19.20;99.90
12446;DHT22;6287;50.984;7.022;2022-07-29T05:43:53;19.30;99.90
12446;DHT22;6287;50.984;7.022;2022-07-29T05:46:18;19.30;99.90
12446;DHT22;6287;50.984;7.022;2022-07-29T05:48:44;19.40;99.90
12446;DHT22;6287;50.984;7.022;2022-07-29T05:51:10;19.50;99.90
12446;DHT22;6287;50.984;7.022;2022-07-29T05:53:36;19.60;99.90
12446;DHT22;6287;50.984;7.022;2022-07-29T05:56:08;19.70;99.90
12446;DHT22;6287;50.984;7.022;2022-07-29T05:58:35;19.80;99.90
12446;DHT22;6287;50.984;7.022;2022-07-29T06:01:03;19.80;99.90
12446;DHT22;6287;50.984;7.022;2022-07-29T06:03:30;19.80;99.90
12446;DHT22;6287;50.984;7.022;2022-07-29T06:05:57;19.90;99.90
12446;DHT22;6287;50.984;7.022;2022-07-29T06:08:30;20.00;99.90
12446;DHT22;6287;50.984;7.022;2022-07-29T06:11:01;20.00;99.90
12446;DHT22;6287;50.984;7.022;2022-07-29T06:13:27;20.10;99.00
12446;DHT22;6287;50.984;7.022;2022-07-29T06:15:55;20.10;99.90
12446;DHT22;6287;50.984;7.022;2022-07-29T06:18:21;20.20;99.90
12446;DHT22;6287;50.984;7.022;2022-07-29T06:20:51;20.30;99.70
12446;DHT22;6287;50.984;7.022;2022-07-29T06:23:20;20.50;98.60
12446;DHT22;6287;50.984;7.022;2022-07-29T06:25:46;20.50;99.20
12446;DHT22;6287;50.984;7.022;2022-07-29T06:28:12;20.60;98.60
12446;DHT22;6287;50.984;7.022;2022-07-29T06:30:38;20.70;98.80
12446;DHT22;6287;50.984;7.022;2022-07-29T06:33:06;20.70;98.70
12446;DHT22;6287;50.984;7.022;2022-07-29T06:35:35;20.80;98.80
12446;DHT22;6287;50.984;7.022;2022-07-29T06:38:07;20.80;96.40
12446;DHT22;6287;50.984;7.022;2022-07-29T06:40:32;20.90;97.80
12446;DHT22;6287;50.984;7.022;2022-07-29T06:43:18;20.90;98.00
12446;DHT22;6287;50.984;7.022;2022-07-29T06:45:47;20.90;97.70
12446;DHT22;6287;50.984;7.022;2022-07-29T06:48:17;21.00;98.90
12446;DHT22;6287;50.984;7.022;2022-07-29T06:50:47;21.00;97.90
12446;DHT22;6287;50.984;7.022;2022-07-29T06:53:13;21.00;98.10
12446;DHT22;6287;50.984;7.022;2022-07-29T06:55:41;20.90;98.30
12446;DHT22;6287;50.984;7.022;2022-07-29T06:58:09;20.90;98.20
12446;DHT22;6287;50.984;7.022;2022-07-29T07:00:37;20.70;98.80
12446;DHT22;6287;50.984;7.022;2022-07-29T07:03:05;20.70;99.00
12446;DHT22;6287;50.984;7.022;2022-07-29T07:05:33;20.60;98.70
12446;DHT22;6287;50.984;7.022;2022-07-29T07:07:59;20.50;99.20
12446;DHT22;6287;50.984;7.022;2022-07-29T07:10:25;20.60;99.40
12446;DHT22;6287;50.984;7.022;2022-07-29T07:12:55;20.50;99.30
12446;DHT22;6287;50.984;7.022;2022-07-29T07:15:20;20.50;99.30
12446;DHT22;6287;50.984;7.022;2022-07-29T07:17:48;20.50;99.20
12446;DHT22;6287;50.984;7.022;2022-07-29T07:20:17;20.50;99.60
12446;DHT22;6287;50.984;7.022;2022-07-29T07:22:45;20.50;98.90
12446;DHT22;6287;50.984;7.022;2022-07-29T07:25:12;20.60;99.40
12446;DHT22;6287;50.984;7.022;2022-07-29T07:27:43;20.70;99.90
12446;DHT22;6287;50.984;7.022;2022-07-29T07:30:08;20.80;98.80
12446;DHT22;6287;50.984;7.022;2022-07-29T07:32:37;20.90;99.20
12446;DHT22;6287;50.984;7.022;2022-07-29T07:35:06;21.10;99.70
12446;DHT22;6287;50.984;7.022;2022-07-29T07:37:33;21.20;99.20
12446;DHT22;6287;50.984;7.022;2022-07-29T07:40:04;21.20;98.00
12446;DHT22;6287;50.984;7.022;2022-07-29T07:42:32;21.30;97.90
12446;DHT22;6287;50.984;7.022;2022-07-29T07:44:58;21.40;99.00
12446;DHT22;6287;50.984;7.022;2022-07-29T07:47:24;21.40;98.20
12446;DHT22;6287;50.984;7.022;2022-07-29T07:49:53;21.50;99.10
12446;DHT22;6287;50.984;7.022;2022-07-29T07:52:22;21.50;98.40
12446;DHT22;6287;50.984;7.022;2022-07-29T07:54:52;21.50;98.30
12446;DHT22;6287;50.984;7.022;2022-07-29T07:57:18;21.50;97.70
12446;DHT22;6287;50.984;7.022;2022-07-29T07:59:43;21.50;98.50
12446;DHT22;6287;50.984;7.022;2022-07-29T08:02:09;21.40;98.50
12446;DHT22;6287;50.984;7.022;2022-07-29T08:04:40;21.50;98.70
12446;DHT22;6287;50.984;7.022;2022-07-29T08:07:06;21.40;97.80
12446;DHT22;6287;50.984;7.022;2022-07-29T08:09:34;21.40;98.60
12446;DHT22;6287;50.984;7.022;2022-07-29T08:12:06;21.40;98.90
12446;DHT22;6287;50.984;7.022;2022-07-29T08:14:34;21.40;98.80
12446;DHT22;6287;50.984;7.022;2022-07-29T08:17:01;21.30;98.20
12446;DHT22;6287;50.984;7.022;2022-07-29T08:19:29;21.40;98.10
12446;DHT22;6287;50.984;7.022;2022-07-29T08:21:58;21.40;98.50
12446;DHT22;6287;50.984;7.022;2022-07-29T08:24:28;21.40;98.20
12446;DHT22;6287;50.984;7.022;2022-07-29T08:27:12;21.40;98.50
12446;DHT22;6287;50.984;7.022;2022-07-29T08:29:40;21.50;98.10
12446;DHT22;6287;50.984;7.022;2022-07-29T08:32:06;21.50;98.50
12446;DHT22;6287;50.984;7.022;2022-07-29T08:34:34;21.50;98.10
12446;DHT22;6287;50.984;7.022;2022-07-29T08:37:00;21.50;98.10
12446;DHT22;6287;50.984;7.022;2022-07-29T08:39:30;21.60;98.10
12446;DHT22;6287;50.984;7.022;2022-07-29T08:42:00;21.60;98.30
12446;DHT22;6287;50.984;7.022;2022-07-29T08:44:26;21.50;98.70
12446;DHT22;6287;50.984;7.022;2022-07-29T08:46:54;21.60;99.00
12446;DHT22;6287;50.984;7.022;2022-07-29T08:49:22;21.60;98.90
12446;DHT22;6287;50.984;7.022;2022-07-29T08:51:48;21.60;99.10
12446;DHT22;6287;50.984;7.022;2022-07-29T08:54:17;21.70;99.30
12446;DHT22;6287;50.984;7.022;2022-07-29T08:56:43;21.70;99.30
12446;DHT22;6287;50.984;7.022;2022-07-29T08:59:12;21.80;99.80
12446;DHT22;6287;50.984;7.022;2022-07-29T09:01:38;21.90;99.60
12446;DHT22;6287;50.984;7.022;2022-07-29T09:04:08;22.00;99.60
12446;DHT22;6287;50.984;7.022;2022-07-29T09:06:42;22.10;99.70
12446;DHT22;6287;50.984;7.022;2022-07-29T09:09:13;22.20;99.10
12446;DHT22;6287;50.984;7.022;2022-07-29T09:11:40;22.30;99.40
12446;DHT22;6287;50.984;7.022;2022-07-29T09:14:06;22.30;99.00
12446;DHT22;6287;50.984;7.022;2022-07-29T09:16:49;22.50;99.30
12446;DHT22;6287;50.984;7.022;2022-07-29T09:19:31;22.50;99.40
12446;DHT22;6287;50.984;7.022;2022-07-29T09:21:59;22.70;98.30
12446;DHT22;6287;50.984;7.022;2022-07-29T09:24:44;22.80;99.10
12446;DHT22;6287;50.984;7.022;2022-07-29T09:27:24;22.90;98.50
12446;DHT22;6287;50.984;7.022;2022-07-29T09:30:09;23.00;98.70
12446;DHT22;6287;50.984;7.022;2022-07-29T09:32:57;23.20;97.90
12446;DHT22;6287;50.984;7.022;2022-07-29T09:35:27;23.20;97.20
12446;DHT22;6287;50.984;7.022;2022-07-29T09:37:55;23.20;97.90
12446;DHT22;6287;50.984;7.022;2022-07-29T09:40:26;23.30;97.70
12446;DHT22;6287;50.984;7.022;2022-07-29T09:42:55;23.40;97.70
12446;DHT22;6287;50.984;7.022;2022-07-29T09:47:54;23.60;98.20
12446;DHT22;6287;50.984;7.022;2022-07-29T09:50:22;23.70;97.80
12446;DHT22;6287;50.984;7.022;2022-07-29T09:52:53;24.10;98.20
12446;DHT22;6287;50.984;7.022;2022-07-29T09:55:20;24.80;96.40
12446;DHT22;6287;50.984;7.022;2022-07-29T09:57:46;25.00;95.30
12446;DHT22;6287;50.984;7.022;2022-07-29T10:00:17;25.00;96.00
12446;DHT22;6287;50.984;7.022;2022-07-29T10:02:44;25.20;95.80
12446;DHT22;6287;50.984;7.022;2022-07-29T10:05:27;25.20;95.80
12446;DHT22;6287;50.984;7.022;2022-07-29T10:07:57;25.10;96.00
12446;DHT22;6287;50.984;7.022;2022-07-29T10:10:28;25.00;96.10
12446;DHT22;6287;50.984;7.022;2022-07-29T10:13:01;24.70;96.40
12446;DHT22;6287;50.984;7.022;2022-07-29T10:15:30;24.70;96.70
12446;DHT22;6287;50.984;7.022;2022-07-29T10:17:58;24.60;97.00
12446;DHT22;6287;50.984;7.022;2022-07-29T10:20:28;24.50;97.50
12446;DHT22;6287;50.984;7.022;2022-07-29T10:22:55;24.30;97.70
12446;DHT22;6287;50.984;7.022;2022-07-29T10:25:24;24.20;97.70
12446;DHT22;6287;50.984;7.022;2022-07-29T10:27:51;24.10;97.50
12446;DHT22;6287;50.984;7.022;2022-07-29T10:30:20;24.10;97.10
12446;DHT22;6287;50.984;7.022;2022-07-29T10:33:07;24.10;97.70
12446;DHT22;6287;50.984;7.022;2022-07-29T10:35:44;24.20;97.60
12446;DHT22;6287;50.984;7.022;2022-07-29T10:44:04;24.60;97.40
12446;DHT22;6287;50.984;7.022;2022-07-29T10:46:37;24.50;97.50
12446;DHT22;6287;50.984;7.022;2022-07-29T10:49:27;24.90;97.00
12446;DHT22;6287;50.984;7.022;2022-07-29T10:54:41;25.10;97.10
12446;DHT22;6287;50.984;7.022;2022-07-29T11:07:32;25.70;95.50
12446;DHT22;6287;50.984;7.022;2022-07-29T11:15:12;26.50;94.70
12446;DHT22;6287;50.984;7.022;2022-07-29T11:20:42;27.30;94.20
12446;DHT22;6287;50.984;7.022;2022-07-29T11:23:29;27.90;92.60
12446;DHT22;6287;50.984;7.022;2022-07-29T11:34:24;29.70;84.30
12446;DHT22;6287;50.984;7.022;2022-07-29T11:45:02;30.60;81.10
12446;DHT22;6287;50.984;7.022;2022-07-29T11:47:33;30.60;81.10
12446;DHT22;6287;50.984;7.022;2022-07-29T11:50:00;30.70;80.60
12446;DHT22;6287;50.984;7.022;2022-07-29T11:55:04;31.00;78.90
12446;DHT22;6287;50.984;7.022;2022-07-29T11:57:30;31.10;77.00
12446;DHT22;6287;50.984;7.022;2022-07-29T11:59:58;31.20;76.50
12446;DHT22;6287;50.984;7.022;2022-07-29T12:02:24;31.40;76.90
12446;DHT22;6287;50.984;7.022;2022-07-29T12:04:54;31.50;74.20
12446;DHT22;6287;50.984;7.022;2022-07-29T12:07:33;31.40;73.90
12446;DHT22;6287;50.984;7.022;2022-07-29T12:10:02;31.30;72.30
12446;DHT22;6287;50.984;7.022;2022-07-29T12:12:27;31.10;73.60
12446;DHT22;6287;50.984;7.022;2022-07-29T12:14:56;31.30;73.90
12446;DHT22;6287;50.984;7.022;2022-07-29T12:17:39;31.30;73.20
12446;DHT22;6287;50.984;7.022;2022-07-29T12:20:08;31.20;71.60
12446;DHT22;6287;50.984;7.022;2022-07-29T12:22:41;31.10;71.70
12446;DHT22;6287;50.984;7.022;2022-07-29T12:25:13;31.00;72.10
12446;DHT22;6287;50.984;7.022;2022-07-29T12:27:44;31.00;72.80
12446;DHT22;6287;50.984;7.022;2022-07-29T12:30:12;31.30;70.50
12446;DHT22;6287;50.984;7.022;2022-07-29T12:32:46;31.40;72.30
12446;DHT22;6287;50.984;7.022;2022-07-29T12:37:40;31.60;71.00
12446;DHT22;6287;50.984;7.022;2022-07-29T12:40:09;31.60;72.20
12446;DHT22;6287;50.984;7.022;2022-07-29T12:42:38;31.70;69.00
12446;DHT22;6287;50.984;7.022;2022-07-29T12:45:07;31.80;69.90
12446;DHT22;6287;50.984;7.022;2022-07-29T12:47:33;31.70;66.80
12446;DHT22;6287;50.984;7.022;2022-07-29T12:50:14;31.40;69.10
12446;DHT22;6287;50.984;7.022;2022-07-29T12:52:44;31.10;69.70
12446;DHT22;6287;50.984;7.022;2022-07-29T12:55:10;31.00;70.40
12446;DHT22;6287;50.984;7.022;2022-07-29T12:57:47;31.10;71.00
12446;DHT22;6287;50.984;7.022;2022-07-29T13:00:16;31.20;69.20
12446;DHT22;6287;50.984;7.022;2022-07-29T13:03:00;31.60;69.30
12446;DHT22;6287;50.984;7.022;2022-07-29T13:05:45;32.00;69.20
12446;DHT22;6287;50.984;7.022;2022-07-29T13:08:20;32.90;64.90
12446;DHT22;6287;50.984;7.022;2022-07-29T13:10:48;32.90;66.50
12446;DHT22;6287;50.984;7.022;2022-07-29T13:13:17;33.20;64.50
12446;DHT22;6287;50.984;7.022;2022-07-29T13:15:44;33.40;64.40
12446;DHT22;6287;50.984;7.022;2022-07-29T13:18:33;33.50;64.70
12446;DHT22;6287;50.984;7.022;2022-07-29T13:21:11;34.00;63.80
12446;DHT22;6287;50.984;7.022;2022-07-29T13:23:42;34.40;60.60
12446;DHT22;6287;50.984;7.022;2022-07-29T13:26:09;34.50;58.70
12446;DHT22;6287;50.984;7.022;2022-07-29T13:28:35;34.50;59.90
12446;DHT22;6287;50.984;7.022;2022-07-29T13:31:01;34.50;60.20
12446;DHT22;6287;50.984;7.022;2022-07-29T13:33:29;34.50;59.20
12446;DHT22;6287;50.984;7.022;2022-07-29T13:35:55;34.50;57.90
12446;DHT22;6287;50.984;7.022;2022-07-29T13:38:21;34.70;58.50
12446;DHT22;6287;50.984;7.022;2022-07-29T13:40:47;34.90;58.90
12446;DHT22;6287;50.984;7.022;2022-07-29T13:43:13;34.90;58.10
12446;DHT22;6287;50.984;7.022;2022-07-29T13:45:38;34.70;57.90
12446;DHT22;6287;50.984;7.022;2022-07-29T13:48:04;34.50;58.20
12446;DHT22;6287;50.984;7.022;2022-07-29T13:50:32;34.10;59.50
12446;DHT22;6287;50.984;7.022;2022-07-29T13:53:00;33.50;59.90
12446;DHT22;6287;50.984;7.022;2022-07-29T13:55:28;33.10;61.00
12446;DHT22;6287;50.984;7.022;2022-07-29T13:57:56;32.90;62.70
12446;DHT22;6287;50.984;7.022;2022-07-29T14:00:22;32.90;61.70
12446;DHT22;6287;50.984;7.022;2022-07-29T14:02:52;33.20;62.90
12446;DHT22;6287;50.984;7.022;2022-07-29T14:05:17;33.30;62.20
12446;DHT22;6287;50.984;7.022;2022-07-29T14:07:43;33.30;62.20
12446;DHT22;6287;50.984;7.022;2022-07-29T14:10:11;33.40;61.30
12446;DHT22;6287;50.984;7.022;2022-07-29T14:12:39;33.70;59.80
12446;DHT22;6287;50.984;7.022;2022-07-29T14:15:07;33.90;59.10
12446;DHT22;6287;50.984;7.022;2022-07-29T14:17:34;34.30;58.70
12446;DHT22;6287;50.984;7.022;2022-07-29T14:20:00;34.60;59.50
12446;DHT22;6287;50.984;7.022;2022-07-29T14:22:28;35.00;58.10
12446;DHT22;6287;50.984;7.022;2022-07-29T14:24:54;35.30;58.20
12446;DHT22;6287;50.984;7.022;2022-07-29T14:27:20;35.50;57.30
12446;DHT22;6287;50.984;7.022;2022-07-29T14:29:45;35.70;56.30
12446;DHT22;6287;50.984;7.022;2022-07-29T14:32:14;35.90;57.00
12446;DHT22;6287;50.984;7.022;2022-07-29T14:34:40;36.00;55.20
12446;DHT22;6287;50.984;7.022;2022-07-29T14:37:09;36.10;55.20
12446;DHT22;6287;50.984;7.022;2022-07-29T14:39:37;36.10;54.30
12446;DHT22;6287;50.984;7.022;2022-07-29T14:42:05;35.70;54.10
12446;DHT22;6287;50.984;7.022;2022-07-29T14:44:31;35.50;54.30
12446;DHT22;6287;50.984;7.022;2022-07-29T14:47:01;35.20;54.60
12446;DHT22;6287;50.984;7.022;2022-07-29T14:49:29;34.80;56.20
12446;DHT22;6287;50.984;7.022;2022-07-29T14:51:54;34.50;55.70
12446;DHT22;6287;50.984;7.022;2022-07-29T14:54:22;34.20;56.80
12446;DHT22;6287;50.984;7.022;2022-07-29T14:56:50;34.10;56.50
12446;DHT22;6287;50.984;7.022;2022-07-29T14:59:17;34.20;55.50
12446;DHT22;6287;50.984;7.022;2022-07-29T15:01:43;34.30;55.10
12446;DHT22;6287;50.984;7.022;2022-07-29T15:04:08;34.50;56.40
12446;DHT22;6287;50.984;7.022;2022-07-29T15:06:36;34.70;55.30
12446;DHT22;6287;50.984;7.022;2022-07-29T15:09:03;34.90;54.80
12446;DHT22;6287;50.984;7.022;2022-07-29T15:11:31;35.10;55.60
12446;DHT22;6287;50.984;7.022;2022-07-29T15:13:59;35.20;54.40
12446;DHT22;6287;50.984;7.022;2022-07-29T15:16:24;35.10;54.10
12446;DHT22;6287;50.984;7.022;2022-07-29T15:18:50;35.30;54.40
12446;DHT22;6287;50.984;7.022;2022-07-29T15:21:16;35.40;52.70
12446;DHT22;6287;50.984;7.022;2022-07-29T15:23:41;35.40;53.80
12446;DHT22;6287;50.984;7.022;2022-07-29T15:26:09;35.30;52.10
12446;DHT22;6287;50.984;7.022;2022-07-29T15:28:39;35.30;53.80
12446;DHT22;6287;50.984;7.022;2022-07-29T15:31:05;35.30;53.10
12446;DHT22;6287;50.984;7.022;2022-07-29T15:33:31;35.30;52.50
12446;DHT22;6287;50.984;7.022;2022-07-29T15:35:59;35.30;52.50
12446;DHT22;6287;50.984;7.022;2022-07-29T15:38:27;35.10;53.00
12446;DHT22;6287;50.984;7.022;2022-07-29T15:40:55;34.90;51.80
12446;DHT22;6287;50.984;7.022;2022-07-29T15:43:21;34.40;51.70
12446;DHT22;6287;50.984;7.022;2022-07-29T15:45:47;34.10;52.60
12446;DHT22;6287;50.984;7.022;2022-07-29T15:48:31;33.80;52.90
12446;DHT22;6287;50.984;7.022;2022-07-29T15:50:58;33.60;53.20
12446;DHT22;6287;50.984;7.022;2022-07-29T15:53:23;33.60;51.80
12446;DHT22;6287;50.984;7.022;2022-07-29T15:55:50;33.80;52.50
12446;DHT22;6287;50.984;7.022;2022-07-29T15:58:16;34.10;51.10
12446;DHT22;6287;50.984;7.022;2022-07-29T16:00:44;34.20;50.60
12446;DHT22;6287;50.984;7.022;2022-07-29T16:03:10;34.30;51.10
12446;DHT22;6287;50.984;7.022;2022-07-29T16:05:35;34.30;50.70
12446;DHT22;6287;50.984;7.022;2022-07-29T16:08:01;34.30;51.00
12446;DHT22;6287;50.984;7.022;2022-07-29T16:10:29;34.30;50.80
12446;DHT22;6287;50.984;7.022;2022-07-29T16:12:54;34.20;51.50
12446;DHT22;6287;50.984;7.022;2022-07-29T16:15:20;34.20;51.30
12446;DHT22;6287;50.984;7.022;2022-07-29T16:17:48;34.20;51.60
12446;DHT22;6287;50.984;7.022;2022-07-29T16:20:17;34.30;51.50
12446;DHT22;6287;50.984;7.022;2022-07-29T16:22:50;34.20;51.20
12446;DHT22;6287;50.984;7.022;2022-07-29T16:25:18;34.00;51.90
12446;DHT22;6287;50.984;7.022;2022-07-29T16:27:49;33.70;52.30
12446;DHT22;6287;50.984;7.022;2022-07-29T16:30:17;33.50;53.20
12446;DHT22;6287;50.984;7.022;2022-07-29T16:32:47;33.50;52.30
12446;DHT22;6287;50.984;7.022;2022-07-29T16:35:13;33.30;52.00
12446;DHT22;6287;50.984;7.022;2022-07-29T16:37:41;32.90;52.60
12446;DHT22;6287;50.984;7.022;2022-07-29T16:40:12;32.60;52.10
12446;DHT22;6287;50.984;7.022;2022-07-29T16:42:40;31.90;53.70
12446;DHT22;6287;50.984;7.022;2022-07-29T16:45:09;31.20;54.80
12446;DHT22;6287;50.984;7.022;2022-07-29T16:47:37;30.60;55.10
12446;DHT22;6287;50.984;7.022;2022-07-29T16:50:05;30.10;56.00
12446;DHT22;6287;50.984;7.022;2022-07-29T16:52:31;29.60;56.90
12446;DHT22;6287;50.984;7.022;2022-07-29T16:54:59;29.20;57.30
12446;DHT22;6287;50.984;7.022;2022-07-29T16:57:25;28.90;57.80
12446;DHT22;6287;50.984;7.022;2022-07-29T16:59:55;28.60;58.70
12446;DHT22;6287;50.984;7.022;2022-07-29T17:02:20;28.50;59.20
12446;DHT22;6287;50.984;7.022;2022-07-29T17:04:50;28.30;58.40
12446;DHT22;6287;50.984;7.022;2022-07-29T17:07:21;28.40;59.40